createdAt,value
2022-11-15T00:00:49.521Z,14.98
2022-11-15T00:03:21.103Z,15.25
2022-11-15T00:05:49.691Z,15.35
2022-11-15T00:08:17.736Z,14.43
2022-11-15T00:10:55.755Z,14.63
2022-11-15T00:13:23.393Z,14.07
2022-11-15T00:15:51.485Z,14.05
2022-11-15T00:18:23.718Z,13.85
2022-11-15T00:20:51.726Z,11.95
2022-11-15T00:23:19.337Z,11.95
2022-11-15T00:25:47.344Z,10.73
2022-11-15T00:28:15.508Z,12.07
2022-11-15T00:30:43.488Z,11.57
2022-11-15T00:33:11.278Z,12.85
2022-11-15T00:35:40.598Z,15.15
2022-11-15T00:38:11.556Z,14.73
2022-11-15T00:40:39.119Z,15.95
2022-11-15T00:43:06.705Z,16.27
2022-11-15T00:45:34.955Z,15.88
2022-11-15T00:48:02.554Z,14.70
2022-11-15T00:50:30.392Z,12.73
2022-11-15T00:52:59.738Z,14.13
2022-11-15T00:55:27.514Z,14.50
2022-11-15T00:57:55.637Z,13.55
2022-11-15T01:00:23.609Z,14.40
2022-11-15T01:02:51.624Z,14.50
2022-11-15T01:05:19.282Z,13.07
2022-11-15T01:07:47.353Z,15.10
2022-11-15T01:10:16.449Z,15.98
2022-11-15T01:12:44.217Z,16.02
2022-11-15T01:15:12.643Z,14.23
2022-11-15T01:17:40.285Z,14.85
2022-11-15T01:20:09.055Z,14.25
2022-11-15T01:22:39.308Z,11.80
2022-11-15T01:25:07.298Z,12.70
2022-11-15T01:27:37.755Z,10.82
2022-11-15T01:30:07.164Z,12.10
2022-11-15T01:32:36.482Z,12.13
2022-11-15T01:35:04.878Z,9.85
2022-11-15T01:37:33.198Z,11.52
2022-11-15T01:40:01.052Z,12.25
2022-11-15T01:42:28.879Z,12.25
2022-11-15T01:44:58.386Z,14.43
2022-11-15T01:47:29.392Z,13.63
2022-11-15T01:50:01.706Z,14.68
2022-11-15T01:52:34.610Z,15.40
2022-11-15T01:57:32.794Z,14.05
2022-11-15T02:00:04.053Z,14.13
2022-11-15T02:02:33.774Z,12.68
2022-11-15T02:05:01.332Z,12.13
2022-11-15T02:07:31.838Z,12.82
2022-11-15T02:10:03.633Z,12.20
2022-11-15T02:12:32.584Z,12.32
2022-11-15T02:15:07.969Z,11.60
2022-11-15T02:18:00.530Z,11.55
2022-11-15T02:20:44.825Z,11.05
2022-11-15T02:24:08.599Z,10.68
2022-11-15T02:27:08.057Z,10.95
2022-11-15T02:29:58.056Z,11.45
2022-11-15T02:32:36.661Z,11.15
2022-11-15T02:35:14.201Z,11.70
2022-11-15T02:37:47.564Z,12.38
2022-11-15T02:40:22.358Z,11.88
2022-11-15T02:42:54.228Z,11.77
2022-11-15T02:45:31.578Z,11.52
2022-11-15T02:48:05.119Z,12.15
2022-11-15T02:50:34.242Z,13.73
2022-11-15T02:53:01.960Z,12.90
2022-11-15T02:55:31.934Z,13.52
2022-11-15T02:58:18.331Z,14.73
2022-11-15T03:00:53.241Z,13.38
2022-11-15T03:03:47.789Z,14.90
2022-11-15T03:06:27.905Z,14.25
2022-11-15T03:09:03.736Z,14.73
2022-11-15T03:11:38.104Z,14.15
2022-11-15T03:14:19.917Z,15.07
2022-11-15T03:16:56.020Z,16.05
2022-11-15T03:19:31.196Z,15.85
2022-11-15T03:22:02.445Z,15.25
2022-11-15T03:24:34.372Z,16.88
2022-11-15T03:27:04.494Z,16.08
2022-11-15T03:29:36.911Z,15.45
2022-11-15T03:32:09.154Z,15.73
2022-11-15T03:34:43.891Z,15.95
2022-11-15T03:37:15.400Z,17.67
2022-11-15T03:42:22.779Z,17.02
2022-11-15T03:44:55.998Z,14.80
2022-11-15T03:47:29.107Z,16.67
2022-11-15T03:50:01.083Z,18.13
2022-11-15T03:52:34.403Z,19.65
2022-11-15T03:55:04.739Z,18.70
2022-11-15T03:57:34.385Z,17.02
2022-11-15T04:00:01.992Z,16.23
2022-11-15T04:02:29.681Z,17.92
2022-11-15T04:04:59.095Z,16.70
2022-11-15T04:07:27.334Z,17.95
2022-11-15T04:09:55.600Z,19.33
2022-11-15T04:12:25.111Z,19.88
2022-11-15T04:14:53.535Z,21.42
2022-11-15T04:17:21.137Z,18.55
2022-11-15T04:19:50.439Z,21.20
2022-11-15T04:22:19.596Z,21.65
2022-11-15T04:24:47.274Z,23.50
2022-11-15T04:27:15.039Z,22.80
2022-11-15T04:29:42.881Z,24.42
2022-11-15T04:32:10.534Z,22.48
2022-11-15T04:34:38.680Z,22.15
2022-11-15T04:37:06.234Z,21.23
2022-11-15T04:39:35.484Z,21.38
2022-11-15T04:42:03.285Z,20.90
2022-11-15T04:44:31.303Z,20.65
2022-11-15T04:46:58.962Z,18.50
2022-11-15T04:49:26.754Z,20.55
2022-11-15T04:51:54.632Z,20.92
2022-11-15T04:54:22.414Z,19.38
2022-11-15T04:56:51.821Z,19.75
2022-11-15T04:59:19.632Z,20.13
2022-11-15T05:01:47.306Z,20.02
2022-11-15T05:04:14.988Z,21.20
2022-11-15T05:06:42.680Z,21.63
2022-11-15T05:09:10.974Z,19.50
2022-11-15T05:11:38.755Z,21.52
2022-11-15T05:14:07.759Z,21.63
2022-11-15T05:16:35.918Z,21.05
2022-11-15T05:21:35.757Z,22.67
2022-11-15T05:24:04.689Z,22.05
2022-11-15T05:26:33.401Z,24.05
2022-11-15T05:29:00.996Z,25.75
2022-11-15T05:31:30.339Z,23.80
2022-11-15T05:34:01.998Z,21.88
2022-11-15T05:36:34.627Z,23.50
2022-11-15T05:39:03.684Z,21.63
2022-11-15T05:41:35.253Z,20.33
2022-11-15T05:46:35.235Z,19.20
2022-11-15T05:49:03.371Z,22.58
2022-11-15T05:51:31.974Z,21.10
2022-11-15T05:54:01.343Z,22.83
2022-11-15T05:56:30.192Z,21.83
2022-11-15T05:59:00.037Z,19.88
2022-11-15T06:01:28.687Z,23.90
2022-11-15T06:03:57.651Z,24.38
2022-11-15T06:06:25.311Z,22.67
2022-11-15T06:08:52.842Z,22.55
2022-11-15T06:11:21.139Z,21.35
2022-11-15T06:13:50.335Z,23.67
2022-11-15T06:16:18.305Z,22.92
2022-11-15T06:18:45.884Z,22.77
2022-11-15T06:21:24.802Z,23.65
2022-11-15T06:23:52.597Z,24.02
2022-11-15T06:26:20.702Z,21.83
2022-11-15T06:28:49.837Z,23.50
2022-11-15T06:31:17.454Z,24.45
2022-11-15T06:33:45.102Z,24.08
2022-11-15T06:36:17.540Z,25.45
2022-11-15T06:38:49.325Z,25.92
2022-11-15T06:41:17.020Z,26.17
2022-11-15T06:43:45.026Z,25.45
2022-11-15T06:46:12.798Z,25.60
2022-11-15T06:48:42.245Z,26.48
2022-11-15T06:51:09.900Z,28.45
2022-11-15T06:53:38.102Z,28.67
2022-11-15T06:56:08.631Z,25.58
2022-11-15T06:58:37.655Z,26.52
2022-11-15T07:01:08.777Z,29.60
2022-11-15T07:03:38.472Z,31.15
2022-11-15T07:06:08.012Z,29.10
2022-11-15T07:08:37.013Z,33.35
2022-11-15T07:11:07.947Z,34.10
2022-11-15T07:13:36.835Z,35.33
2022-11-15T07:16:06.696Z,32.58
2022-11-15T07:18:35.102Z,33.15
2022-11-15T07:21:03.868Z,34.25
2022-11-15T07:23:32.599Z,33.40
2022-11-15T07:26:01.299Z,31.77
2022-11-15T07:28:30.792Z,33.00
2022-11-15T07:30:59.277Z,31.92
2022-11-15T07:33:26.825Z,31.13
2022-11-15T07:35:54.491Z,34.40
2022-11-15T07:38:22.275Z,33.17
2022-11-15T07:40:57.660Z,38.33
2022-11-15T07:43:26.197Z,34.72
2022-11-15T07:45:59.131Z,36.40
2022-11-15T07:48:42.183Z,34.63
2022-11-15T07:51:14.192Z,36.78
2022-11-15T07:53:42.599Z,39.05
2022-11-15T07:56:11.058Z,38.95
2022-11-15T07:58:38.706Z,39.90
2022-11-15T08:01:09.450Z,36.58
2022-11-15T08:03:37.512Z,35.83
2022-11-15T08:06:05.886Z,36.78
2022-11-15T08:08:33.712Z,35.13
2022-11-15T08:11:05.018Z,31.48
2022-11-15T08:13:33.944Z,33.35
2022-11-15T08:16:02.598Z,31.60
2022-11-15T08:18:31.904Z,34.10
2022-11-15T08:21:01.055Z,32.63
2022-11-15T08:23:29.043Z,32.05
2022-11-15T08:26:01.620Z,33.67
2022-11-15T08:28:29.968Z,32.55
2022-11-15T08:30:59.091Z,33.17
2022-11-15T08:33:27.403Z,33.67
2022-11-15T08:35:59.206Z,34.33
2022-11-15T08:38:27.248Z,31.95
2022-11-15T08:41:02.925Z,29.98
2022-11-15T08:43:30.998Z,28.33
2022-11-15T08:46:01.018Z,30.95
2022-11-15T08:48:29.015Z,28.30
2022-11-15T08:50:58.640Z,28.73
2022-11-15T08:53:26.215Z,28.77
2022-11-15T08:55:55.092Z,31.80
2022-11-15T08:58:22.841Z,34.35
2022-11-15T09:00:52.080Z,31.67
2022-11-15T09:03:20.412Z,33.35
2022-11-15T09:05:49.732Z,34.75
2022-11-15T09:08:45.964Z,33.53
2022-11-15T09:11:08.156Z,32.03
2022-11-15T09:13:35.990Z,34.83
2022-11-15T09:16:05.977Z,33.58
2022-11-15T09:18:34.654Z,32.25
2022-11-15T09:21:04.406Z,31.10
2022-11-15T09:23:34.393Z,27.90
2022-11-15T09:26:03.436Z,29.85
2022-11-15T09:28:32.328Z,30.58
2022-11-15T09:31:01.450Z,30.17
2022-11-15T09:33:30.857Z,29.45
2022-11-15T09:36:01.797Z,29.08
2022-11-15T09:38:30.437Z,29.38
2022-11-15T09:41:26.963Z,30.98
2022-11-15T09:44:08.085Z,32.28
2022-11-15T09:46:46.933Z,35.47
2022-11-15T09:49:16.979Z,37.28
2022-11-15T09:51:47.175Z,36.67
2022-11-15T09:54:52.788Z,33.08
2022-11-15T09:57:16.457Z,31.52
2022-11-15T10:00:12.415Z,35.50
2022-11-15T10:02:59.617Z,25.38
2022-11-15T10:08:03.807Z,28.30
2022-11-15T10:10:39.432Z,27.15
2022-11-15T10:13:14.531Z,29.63
2022-11-15T10:15:44.689Z,30.02
2022-11-15T10:18:19.862Z,25.33
2022-11-15T10:20:50.579Z,29.20
2022-11-15T10:23:21.367Z,27.42
2022-11-15T10:25:51.653Z,22.25
2022-11-15T10:28:26.735Z,19.50
2022-11-15T10:30:56.652Z,17.42
2022-11-15T10:33:32.027Z,18.42
2022-11-15T10:36:18.731Z,20.50
2022-11-15T10:38:58.242Z,17.58
2022-11-15T10:41:38.852Z,20.10
2022-11-15T10:44:24.012Z,18.80
2022-11-15T10:47:38.877Z,18.92
2022-11-15T10:50:27.412Z,20.15
2022-11-15T10:52:55.582Z,19.65
2022-11-15T10:55:27.568Z,18.25
2022-11-15T10:58:00.150Z,18.38
2022-11-15T11:00:33.196Z,19.40
2022-11-15T11:03:03.604Z,18.83
2022-11-15T11:05:38.150Z,19.13
2022-11-15T11:08:22.926Z,16.25
2022-11-15T11:11:00.249Z,14.77
2022-11-15T11:13:31.825Z,11.88
2022-11-15T11:16:25.801Z,11.05
2022-11-15T11:19:04.850Z,9.93
2022-11-15T11:21:46.495Z,9.82
2022-11-15T11:24:22.961Z,8.48
2022-11-15T11:27:14.493Z,7.60
2022-11-15T11:29:59.820Z,7.13
2022-11-15T11:32:41.527Z,5.40
2022-11-15T11:35:15.101Z,4.32
2022-11-15T11:37:50.488Z,4.82
2022-11-15T11:40:28.802Z,4.47
2022-11-15T11:43:03.601Z,4.18
2022-11-15T11:45:54.949Z,3.70
2022-11-15T11:48:40.254Z,5.40
2022-11-15T11:51:14.041Z,4.30
2022-11-15T11:53:53.364Z,4.60
2022-11-15T11:56:29.798Z,5.65
2022-11-15T11:59:07.013Z,4.68
2022-11-15T12:01:42.034Z,4.43
2022-11-15T12:04:20.115Z,4.55
2022-11-15T12:06:53.109Z,5.35
2022-11-15T12:09:27.827Z,4.25
2022-11-15T12:12:03.803Z,4.90
2022-11-15T12:14:37.397Z,4.65
2022-11-15T12:17:05.312Z,5.28
2022-11-15T12:19:36.518Z,5.05
2022-11-15T12:22:10.138Z,5.28
2022-11-15T12:24:44.129Z,4.60
2022-11-15T12:27:24.953Z,4.90
2022-11-15T12:29:59.365Z,5.82
2022-11-15T12:32:31.626Z,5.68
2022-11-15T12:35:02.936Z,5.63
2022-11-15T12:40:35.908Z,4.63
2022-11-15T12:43:26.507Z,4.53
2022-11-15T12:45:54.321Z,4.72
2022-11-15T12:48:50.426Z,4.53
2022-11-15T12:51:21.657Z,5.00
2022-11-15T12:53:51.416Z,4.55
2022-11-15T12:56:23.642Z,4.47
2022-11-15T12:58:57.934Z,5.22
2022-11-15T13:02:00.817Z,4.45
2022-11-15T13:04:31.102Z,4.90
2022-11-15T13:07:02.996Z,4.30
2022-11-15T13:10:01.052Z,4.68
2022-11-15T13:12:55.306Z,4.47
2022-11-15T13:15:55.535Z,5.43
2022-11-15T13:18:33.755Z,5.57
2022-11-15T13:21:04.885Z,5.32
2022-11-15T13:23:34.964Z,6.20
2022-11-15T13:26:13.838Z,5.93
2022-11-15T13:28:46.144Z,6.00
2022-11-15T13:31:25.762Z,4.53
2022-11-15T13:33:56.078Z,4.68
2022-11-15T13:36:26.791Z,4.55
2022-11-15T13:39:01.955Z,4.40
2022-11-15T13:41:32.251Z,4.13
2022-11-15T13:44:01.512Z,4.45
2022-11-15T13:46:30.298Z,5.38
2022-11-15T13:48:59.229Z,5.30
2022-11-15T13:51:38.250Z,5.90
2022-11-15T13:54:16.082Z,6.50
2022-11-15T13:56:47.875Z,8.60
2022-11-15T13:59:22.255Z,9.65
2022-11-15T14:01:51.669Z,9.45
2022-11-15T14:04:24.821Z,10.75
2022-11-15T14:06:56.259Z,13.90
2022-11-15T14:09:37.628Z,15.07
2022-11-15T14:12:27.597Z,20.98
2022-11-15T14:14:55.407Z,25.73
2022-11-15T14:17:37.944Z,26.42
2022-11-15T14:20:28.920Z,23.77
2022-11-15T14:22:58.909Z,21.77
2022-11-15T14:25:29.824Z,20.77
2022-11-15T14:28:31.766Z,20.35
2022-11-15T14:31:01.372Z,20.92
2022-11-15T14:33:31.386Z,45.00
2022-11-15T14:36:05.961Z,42.13
2022-11-15T14:38:35.007Z,50.97
2022-11-15T14:41:04.430Z,48.50
2022-11-15T14:43:32.268Z,91.65
2022-11-15T14:46:02.331Z,142.25
2022-11-15T14:48:30.606Z,145.40
2022-11-15T14:50:58.978Z,34.38
2022-11-15T14:53:26.617Z,28.20
2022-11-15T14:55:54.546Z,22.05
2022-11-15T14:58:24.138Z,21.70
2022-11-15T15:00:51.934Z,21.70
2022-11-15T15:03:19.774Z,38.63
2022-11-15T15:05:47.923Z,62.63
2022-11-15T15:08:15.604Z,64.43
2022-11-15T15:10:44.860Z,37.25
2022-11-15T15:13:18.072Z,23.77
2022-11-15T15:15:48.176Z,22.83
2022-11-15T15:18:16.509Z,22.48
2022-11-15T15:20:46.322Z,19.92
2022-11-15T15:23:19.168Z,21.00
2022-11-15T15:25:48.059Z,32.38
2022-11-15T15:28:15.901Z,39.40
2022-11-15T15:30:43.462Z,47.38
2022-11-15T15:33:12.826Z,90.57
2022-11-15T15:35:40.652Z,67.03
2022-11-15T15:38:12.423Z,59.90
2022-11-15T15:40:40.434Z,56.72
2022-11-15T15:43:08.232Z,59.38
2022-11-15T15:45:38.818Z,61.53
2022-11-15T15:48:06.875Z,69.95
2022-11-15T15:50:36.263Z,55.00
2022-11-15T15:53:05.070Z,49.50
2022-11-15T15:55:33.665Z,44.08
2022-11-15T15:58:01.425Z,43.28
2022-11-15T16:00:29.479Z,31.60
2022-11-15T16:03:00.956Z,34.97
2022-11-15T16:05:28.550Z,29.08
2022-11-15T16:07:57.559Z,29.13
2022-11-15T16:10:30.992Z,29.85
2022-11-15T16:13:01.152Z,47.92
2022-11-15T16:15:32.161Z,45.00
2022-11-15T16:18:01.489Z,63.90
2022-11-15T16:20:33.324Z,89.18
2022-11-15T16:23:08.789Z,67.32
2022-11-15T16:25:56.576Z,45.60
2022-11-15T16:28:26.318Z,49.83
2022-11-15T16:31:01.840Z,49.22
2022-11-15T16:33:29.886Z,47.72
2022-11-15T16:35:57.892Z,45.25
2022-11-15T16:38:27.103Z,51.22
2022-11-15T16:40:54.631Z,53.65
2022-11-15T16:43:22.525Z,55.67
2022-11-15T16:45:50.880Z,58.97
2022-11-15T16:48:23.111Z,49.03
2022-11-15T16:50:54.967Z,51.67
2022-11-15T16:53:23.080Z,44.80
2022-11-15T16:55:52.090Z,43.60
2022-11-15T16:58:19.831Z,40.15
2022-11-15T17:00:51.777Z,40.17
2022-11-15T17:03:19.901Z,39.20
2022-11-15T17:05:47.569Z,41.20
2022-11-15T17:08:15.240Z,40.80
2022-11-15T17:10:43.112Z,46.95
2022-11-15T17:13:14.455Z,50.75
2022-11-15T17:15:42.686Z,41.50
2022-11-15T17:18:12.511Z,39.35
2022-11-15T17:20:40.897Z,37.22
2022-11-15T17:23:12.643Z,43.20
2022-11-15T17:28:07.648Z,45.75
2022-11-15T17:30:37.116Z,44.80
2022-11-15T17:33:05.206Z,41.50
2022-11-15T17:35:32.817Z,37.92
2022-11-15T17:38:01.259Z,42.22
2022-11-15T17:40:29.206Z,39.15
2022-11-15T17:42:56.779Z,37.10
2022-11-15T17:45:24.500Z,38.13
2022-11-15T17:47:53.502Z,39.85
2022-11-15T17:50:21.139Z,39.72
2022-11-15T17:52:49.698Z,36.33
2022-11-15T17:55:17.501Z,32.83
2022-11-15T17:57:45.961Z,36.65
2022-11-15T18:00:14.798Z,31.85
2022-11-15T18:02:42.394Z,34.83
2022-11-15T18:05:11.431Z,34.00
2022-11-15T18:07:39.301Z,33.42
2022-11-15T18:10:08.149Z,31.95
2022-11-15T18:12:36.070Z,27.35
2022-11-15T18:15:04.439Z,24.58
2022-11-15T18:17:32.070Z,24.85
2022-11-15T18:20:00.281Z,23.73
2022-11-15T18:22:29.557Z,22.27
2022-11-15T18:24:57.264Z,24.42
2022-11-15T18:27:24.983Z,22.02
2022-11-15T18:29:53.060Z,24.20
2022-11-15T18:32:21.430Z,27.50
2022-11-15T18:34:49.123Z,26.35
2022-11-15T18:37:17.164Z,23.35
2022-11-15T18:39:51.036Z,25.23
2022-11-15T18:42:20.377Z,25.58
2022-11-15T18:44:48.122Z,23.35
2022-11-15T18:47:15.792Z,22.83
2022-11-15T18:49:44.149Z,22.73
2022-11-15T18:52:11.728Z,22.80
2022-11-15T18:54:39.240Z,20.20
2022-11-15T18:57:08.845Z,19.42
2022-11-15T18:59:36.499Z,20.88
2022-11-15T19:02:04.079Z,20.63
2022-11-15T19:04:32.711Z,36.45
2022-11-15T19:07:00.407Z,48.17
2022-11-15T19:09:28.078Z,54.28
2022-11-15T19:11:56.420Z,50.28
2022-11-15T19:14:30.637Z,47.75
2022-11-15T19:16:58.870Z,48.42
2022-11-15T19:19:27.701Z,49.33
2022-11-15T19:21:55.534Z,49.40
2022-11-15T19:24:23.309Z,47.80
2022-11-15T19:26:51.053Z,43.08
2022-11-15T19:29:18.665Z,40.90
2022-11-15T19:31:47.900Z,39.95
2022-11-15T19:34:15.590Z,31.25
2022-11-15T19:36:45.753Z,31.65
2022-11-15T19:39:15.205Z,28.13
2022-11-15T19:41:43.896Z,25.38
2022-11-15T19:44:12.575Z,24.10
2022-11-15T19:46:41.097Z,27.30
2022-11-15T19:49:11.383Z,23.77
2022-11-15T19:51:40.157Z,22.90
2022-11-15T19:54:08.224Z,19.15
2022-11-15T19:56:37.048Z,15.82
2022-11-15T19:59:04.920Z,12.32
2022-11-15T20:01:34.739Z,12.63
2022-11-15T20:04:02.487Z,12.55
2022-11-15T20:06:33.565Z,14.02
2022-11-15T20:09:01.521Z,13.52
2022-11-15T20:11:31.791Z,14.38
2022-11-15T20:14:00.854Z,12.32
2022-11-15T20:16:30.145Z,11.77
2022-11-15T20:18:57.918Z,11.18
2022-11-15T20:21:26.056Z,10.85
2022-11-15T20:23:55.271Z,11.43
2022-11-15T20:26:23.007Z,10.60
2022-11-15T20:28:50.992Z,10.57
2022-11-15T20:31:18.854Z,12.35
2022-11-15T20:33:46.981Z,12.15
2022-11-15T20:36:15.580Z,10.27
2022-11-15T20:38:45.445Z,11.80
2022-11-15T20:41:14.854Z,11.75
2022-11-15T20:43:42.593Z,11.68
2022-11-15T20:46:10.852Z,12.38
2022-11-15T20:48:39.274Z,12.95
2022-11-15T20:51:09.918Z,12.60
2022-11-15T20:53:38.128Z,12.25
2022-11-15T20:56:09.804Z,12.23
2022-11-15T20:58:39.430Z,13.43
2022-11-15T21:01:09.002Z,13.02
2022-11-15T21:03:36.866Z,12.57
2022-11-15T21:06:04.917Z,12.38
2022-11-15T21:08:33.579Z,12.70
2022-11-15T21:11:02.402Z,13.13
2022-11-15T21:13:30.677Z,12.73
2022-11-15T21:16:03.410Z,11.98
2022-11-15T21:18:34.951Z,13.60
2022-11-15T21:21:03.922Z,14.05
2022-11-15T21:23:32.988Z,13.68
2022-11-15T21:26:01.764Z,13.02
2022-11-15T21:28:29.624Z,12.60
2022-11-15T21:31:00.372Z,13.32
2022-11-15T21:33:31.801Z,13.15
2022-11-15T21:35:59.331Z,13.50
2022-11-15T21:38:28.994Z,13.75
2022-11-15T21:40:57.513Z,14.52
2022-11-15T21:43:25.061Z,13.15
2022-11-15T21:45:56.646Z,14.00
2022-11-15T21:48:24.653Z,16.38
2022-11-15T21:50:58.355Z,16.42
2022-11-15T21:53:28.939Z,21.20
2022-11-15T21:55:56.508Z,19.05
2022-11-15T21:58:24.449Z,18.00
2022-11-15T22:00:55.026Z,16.50
2022-11-15T22:03:22.605Z,17.55
2022-11-15T22:05:51.017Z,19.80
2022-11-15T22:08:20.953Z,21.02
2022-11-15T22:10:50.720Z,19.60
2022-11-15T22:13:19.318Z,17.42
2022-11-15T22:15:48.616Z,16.63
2022-11-15T22:18:16.719Z,14.48
2022-11-15T22:20:53.361Z,13.00
2022-11-15T22:23:22.925Z,11.70
2022-11-15T22:25:50.757Z,11.80
2022-11-15T22:28:20.356Z,8.77
2022-11-15T22:30:50.191Z,8.05
2022-11-15T22:33:19.448Z,8.63
2022-11-15T22:35:48.805Z,8.70
2022-11-15T22:38:17.519Z,7.68
2022-11-15T22:40:46.905Z,7.95
2022-11-15T22:43:23.363Z,8.25
2022-11-15T22:45:55.117Z,8.90
2022-11-15T22:48:26.111Z,8.40
2022-11-15T22:50:54.500Z,9.35
2022-11-15T22:53:22.830Z,8.27
2022-11-15T22:55:53.914Z,7.30
2022-11-15T22:58:22.833Z,8.15
2022-11-15T23:00:51.443Z,8.25
2022-11-15T23:03:23.251Z,8.82
2022-11-15T23:05:51.822Z,9.20
2022-11-15T23:08:20.014Z,10.05
2022-11-15T23:10:49.685Z,9.20
2022-11-15T23:13:18.941Z,9.05
2022-11-15T23:16:08.939Z,10.13
2022-11-15T23:18:40.740Z,9.98
2022-11-15T23:21:10.465Z,9.38
2022-11-15T23:23:39.058Z,12.43
2022-11-15T23:26:07.756Z,9.93
2022-11-15T23:28:37.352Z,10.32
2022-11-15T23:31:06.415Z,11.15
2022-11-15T23:33:35.190Z,10.57
2022-11-15T23:36:03.634Z,11.07
2022-11-15T23:38:33.628Z,10.98
2022-11-15T23:41:01.711Z,13.40
2022-11-15T23:43:56.299Z,11.40
2022-11-15T23:46:23.976Z,10.80
2022-11-15T23:48:52.567Z,10.50
2022-11-15T23:51:24.061Z,9.52
2022-11-15T23:53:52.247Z,10.07
2022-11-15T23:56:20.730Z,10.13
